sensor_id;sensor_type;location;lat;lon;timestamp;temperature;humidity
21035;DHT22;10676;50.848;3.272;2022-09-09T00:04:41;15.20;99.90
21035;DHT22;10676;50.848;3.272;2022-09-09T00:15:14;15.00;99.90
21035;DHT22;10676;50.848;3.272;2022-09-09T00:20:24;15.00;99.90
21035;DHT22;10676;50.848;3.272;2022-09-09T00:25:49;15.10;99.90
21035;DHT22;10676;50.848;3.272;2022-09-09T00:28:25;15.00;99.90
21035;DHT22;10676;50.848;3.272;2022-09-09T00:30:52;15.10;99.90
21035;DHT22;10676;50.848;3.272;2022-09-09T00:33:22;15.10;99.90
21035;DHT22;10676;50.848;3.272;2022-09-09T00:35:59;15.10;99.90
21035;DHT22;10676;50.848;3.272;2022-09-09T00:38:35;15.10;99.90
21035;DHT22;10676;50.848;3.272;2022-09-09T00:41:06;15.10;99.90
21035;DHT22;10676;50.848;3.272;2022-09-09T00:43:39;15.10;99.90
21035;DHT22;10676;50.848;3.272;2022-09-09T00:51:56;15.10;99.90
21035;DHT22;10676;50.848;3.272;2022-09-09T00:59:46;14.90;99.90
21035;DHT22;10676;50.848;3.272;2022-09-09T01:02:21;14.90;99.90
21035;DHT22;10676;50.848;3.272;2022-09-09T01:04:51;14.80;99.90
21035;DHT22;10676;50.848;3.272;2022-09-09T01:07:18;14.70;99.90
21035;DHT22;10676;50.848;3.272;2022-09-09T01:09:51;14.70;99.90
21035;DHT22;10676;50.848;3.272;2022-09-09T01:15:03;14.60;99.90
21035;DHT22;10676;50.848;3.272;2022-09-09T01:20:19;14.60;99.90
21035;DHT22;10676;50.848;3.272;2022-09-09T01:26:08;14.50;99.90
21035;DHT22;10676;50.848;3.272;2022-09-09T01:28:36;14.50;99.90
21035;DHT22;10676;50.848;3.272;2022-09-09T01:31:05;14.50;99.90
21035;DHT22;10676;50.848;3.272;2022-09-09T01:33:31;14.40;99.90
21035;DHT22;10676;50.848;3.272;2022-09-09T01:38:31;14.40;99.90
21035;DHT22;10676;50.848;3.272;2022-09-09T01:40:58;14.40;99.90
21035;DHT22;10676;50.848;3.272;2022-09-09T01:43:24;14.40;99.90
21035;DHT22;10676;50.848;3.272;2022-09-09T01:45:53;14.40;99.90
21035;DHT22;10676;50.848;3.272;2022-09-09T01:48:21;14.40;99.90
21035;DHT22;10676;50.848;3.272;2022-09-09T01:50:47;14.40;99.90
21035;DHT22;10676;50.848;3.272;2022-09-09T01:53:14;14.40;99.90
21035;DHT22;10676;50.848;3.272;2022-09-09T01:55:48;14.40;99.90
21035;DHT22;10676;50.848;3.272;2022-09-09T02:03:49;14.50;99.90
21035;DHT22;10676;50.848;3.272;2022-09-09T02:06:35;14.50;99.90
21035;DHT22;10676;50.848;3.272;2022-09-09T02:09:04;14.60;99.90
21035;DHT22;10676;50.848;3.272;2022-09-09T02:11:30;14.70;99.90
21035;DHT22;10676;50.848;3.272;2022-09-09T02:14:16;14.80;99.90
21035;DHT22;10676;50.848;3.272;2022-09-09T02:16:54;14.80;99.90
21035;DHT22;10676;50.848;3.272;2022-09-09T02:19:25;14.90;99.90
21035;DHT22;10676;50.848;3.272;2022-09-09T02:21:55;14.90;99.90
21035;DHT22;10676;50.848;3.272;2022-09-09T02:24:21;14.90;99.90
21035;DHT22;10676;50.848;3.272;2022-09-09T02:26:49;15.00;99.90
21035;DHT22;10676;50.848;3.272;2022-09-09T02:29:26;15.00;99.90
21035;DHT22;10676;50.848;3.272;2022-09-09T02:31:57;14.90;99.90
21035;DHT22;10676;50.848;3.272;2022-09-09T02:34:24;14.90;99.90
21035;DHT22;10676;50.848;3.272;2022-09-09T02:36:51;14.80;99.90
21035;DHT22;10676;50.848;3.272;2022-09-09T02:39:19;14.90;99.90
21035;DHT22;10676;50.848;3.272;2022-09-09T02:41:44;14.80;99.90
21035;DHT22;10676;50.848;3.272;2022-09-09T02:44:19;14.80;99.90
21035;DHT22;10676;50.848;3.272;2022-09-09T02:52:38;14.80;99.90
21035;DHT22;10676;50.848;3.272;2022-09-09T02:54:59;14.80;99.90
21035;DHT22;10676;50.848;3.272;2022-09-09T02:57:29;14.80;99.90
21035;DHT22;10676;50.848;3.272;2022-09-09T02:59:57;14.80;99.90
21035;DHT22;10676;50.848;3.272;2022-09-09T03:02:24;14.80;99.90
21035;DHT22;10676;50.848;3.272;2022-09-09T03:04:50;14.90;99.90
21035;DHT22;10676;50.848;3.272;2022-09-09T03:07:18;14.90;99.90
21035;DHT22;10676;50.848;3.272;2022-09-09T03:09:44;14.90;99.90
21035;DHT22;10676;50.848;3.272;2022-09-09T03:12:10;15.00;99.90
21035;DHT22;10676;50.848;3.272;2022-09-09T03:14:37;15.10;99.90
21035;DHT22;10676;50.848;3.272;2022-09-09T03:17:04;15.10;99.90
21035;DHT22;10676;50.848;3.272;2022-09-09T03:19:30;15.20;99.90
21035;DHT22;10676;50.848;3.272;2022-09-09T03:21:57;15.20;99.90
21035;DHT22;10676;50.848;3.272;2022-09-09T03:24:24;15.20;99.90
21035;DHT22;10676;50.848;3.272;2022-09-09T03:26:49;15.30;99.90
21035;DHT22;10676;50.848;3.272;2022-09-09T03:29:16;15.30;99.90
21035;DHT22;10676;50.848;3.272;2022-09-09T03:31:43;15.30;99.90
21035;DHT22;10676;50.848;3.272;2022-09-09T03:34:09;15.30;99.90
21035;DHT22;10676;50.848;3.272;2022-09-09T03:36:35;15.40;99.90
21035;DHT22;10676;50.848;3.272;2022-09-09T03:39:01;15.40;99.90
21035;DHT22;10676;50.848;3.272;2022-09-09T03:41:28;15.40;99.90
21035;DHT22;10676;50.848;3.272;2022-09-09T03:43:54;15.40;99.90
21035;DHT22;10676;50.848;3.272;2022-09-09T03:46:22;15.40;99.90
21035;DHT22;10676;50.848;3.272;2022-09-09T03:48:48;15.40;99.90
21035;DHT22;10676;50.848;3.272;2022-09-09T03:51:14;15.40;99.90
21035;DHT22;10676;50.848;3.272;2022-09-09T03:53:41;15.50;99.90
21035;DHT22;10676;50.848;3.272;2022-09-09T03:56:08;15.50;99.90
21035;DHT22;10676;50.848;3.272;2022-09-09T03:58:35;15.50;99.90
21035;DHT22;10676;50.848;3.272;2022-09-09T04:01:12;15.50;99.90
21035;DHT22;10676;50.848;3.272;2022-09-09T04:03:42;15.50;99.90
21035;DHT22;10676;50.848;3.272;2022-09-09T04:06:09;15.60;99.90
21035;DHT22;10676;50.848;3.272;2022-09-09T04:08:35;15.60;99.90
21035;DHT22;10676;50.848;3.272;2022-09-09T04:11:02;15.60;99.90
21035;DHT22;10676;50.848;3.272;2022-09-09T04:13:32;15.60;99.90
21035;DHT22;10676;50.848;3.272;2022-09-09T04:16:00;15.60;99.90
21035;DHT22;10676;50.848;3.272;2022-09-09T04:18:27;15.70;99.90
21035;DHT22;10676;50.848;3.272;2022-09-09T04:20:56;15.70;99.90
21035;DHT22;10676;50.848;3.272;2022-09-09T04:23:26;15.70;99.90
21035;DHT22;10676;50.848;3.272;2022-09-09T04:25:55;15.70;99.90
21035;DHT22;10676;50.848;3.272;2022-09-09T04:28:23;15.70;99.90
21035;DHT22;10676;50.848;3.272;2022-09-09T04:30:49;15.70;99.90
21035;DHT22;10676;50.848;3.272;2022-09-09T04:33:15;15.80;99.90
21035;DHT22;10676;50.848;3.272;2022-09-09T04:35:48;15.80;99.90
21035;DHT22;10676;50.848;3.272;2022-09-09T04:38:14;15.80;99.90
21035;DHT22;10676;50.848;3.272;2022-09-09T04:40:43;15.90;99.90
21035;DHT22;10676;50.848;3.272;2022-09-09T04:43:09;15.90;99.90
21035;DHT22;10676;50.848;3.272;2022-09-09T04:45:35;15.90;99.90
21035;DHT22;10676;50.848;3.272;2022-09-09T04:48:01;15.80;99.90
21035;DHT22;10676;50.848;3.272;2022-09-09T04:50:27;15.90;99.90
21035;DHT22;10676;50.848;3.272;2022-09-09T04:52:54;15.90;99.90
21035;DHT22;10676;50.848;3.272;2022-09-09T04:55:19;15.90;99.90
21035;DHT22;10676;50.848;3.272;2022-09-09T04:57:45;15.80;99.90
21035;DHT22;10676;50.848;3.272;2022-09-09T05:00:12;15.80;99.90
21035;DHT22;10676;50.848;3.272;2022-09-09T05:02:39;15.90;99.90
21035;DHT22;10676;50.848;3.272;2022-09-09T05:05:05;15.90;99.90
21035;DHT22;10676;50.848;3.272;2022-09-09T05:07:31;15.90;99.90
21035;DHT22;10676;50.848;3.272;2022-09-09T05:09:57;15.90;99.90
21035;DHT22;10676;50.848;3.272;2022-09-09T05:12:23;15.90;99.90
21035;DHT22;10676;50.848;3.272;2022-09-09T05:14:51;15.90;99.90
21035;DHT22;10676;50.848;3.272;2022-09-09T05:17:17;15.90;99.90
21035;DHT22;10676;50.848;3.272;2022-09-09T05:19:43;15.80;99.90
21035;DHT22;10676;50.848;3.272;2022-09-09T05:22:09;15.90;99.90
21035;DHT22;10676;50.848;3.272;2022-09-09T05:24:37;15.90;99.90
21035;DHT22;10676;50.848;3.272;2022-09-09T05:27:04;15.80;99.90
21035;DHT22;10676;50.848;3.272;2022-09-09T05:29:31;15.80;99.90
21035;DHT22;10676;50.848;3.272;2022-09-09T05:31:59;15.80;99.90
21035;DHT22;10676;50.848;3.272;2022-09-09T05:34:24;15.80;99.90
21035;DHT22;10676;50.848;3.272;2022-09-09T05:36:50;15.80;99.90
21035;DHT22;10676;50.848;3.272;2022-09-09T05:39:17;15.80;99.90
21035;DHT22;10676;50.848;3.272;2022-09-09T05:41:43;15.80;99.90
21035;DHT22;10676;50.848;3.272;2022-09-09T05:44:08;15.90;99.90
21035;DHT22;10676;50.848;3.272;2022-09-09T05:46:34;15.90;99.90
21035;DHT22;10676;50.848;3.272;2022-09-09T05:49:00;15.90;99.90
21035;DHT22;10676;50.848;3.272;2022-09-09T05:51:28;15.90;99.90
21035;DHT22;10676;50.848;3.272;2022-09-09T05:53:56;15.90;99.90
21035;DHT22;10676;50.848;3.272;2022-09-09T05:56:25;15.90;99.90
21035;DHT22;10676;50.848;3.272;2022-09-09T05:58:52;15.90;99.90
21035;DHT22;10676;50.848;3.272;2022-09-09T06:01:24;15.90;99.90
21035;DHT22;10676;50.848;3.272;2022-09-09T06:03:52;15.90;99.90
21035;DHT22;10676;50.848;3.272;2022-09-09T06:06:23;15.90;99.90
21035;DHT22;10676;50.848;3.272;2022-09-09T06:08:52;16.00;99.90
21035;DHT22;10676;50.848;3.272;2022-09-09T06:11:27;16.00;99.90
21035;DHT22;10676;50.848;3.272;2022-09-09T06:13:53;15.90;99.90
21035;DHT22;10676;50.848;3.272;2022-09-09T06:16:21;15.90;99.90
21035;DHT22;10676;50.848;3.272;2022-09-09T06:18:54;15.90;99.90
21035;DHT22;10676;50.848;3.272;2022-09-09T06:21:26;16.00;99.90
21035;DHT22;10676;50.848;3.272;2022-09-09T06:23:52;16.00;99.90
21035;DHT22;10676;50.848;3.272;2022-09-09T06:26:20;16.00;99.90
21035;DHT22;10676;50.848;3.272;2022-09-09T06:28:47;16.00;99.90
21035;DHT22;10676;50.848;3.272;2022-09-09T06:31:15;16.00;99.90
21035;DHT22;10676;50.848;3.272;2022-09-09T06:33:43;16.10;99.90
21035;DHT22;10676;50.848;3.272;2022-09-09T06:36:15;16.20;99.90
21035;DHT22;10676;50.848;3.272;2022-09-09T06:38:44;16.20;99.90
21035;DHT22;10676;50.848;3.272;2022-09-09T06:41:11;16.20;99.90
21035;DHT22;10676;50.848;3.272;2022-09-09T06:43:37;16.30;99.90
21035;DHT22;10676;50.848;3.272;2022-09-09T06:46:30;16.30;99.90
21035;DHT22;10676;50.848;3.272;2022-09-09T06:48:58;16.30;99.90
21035;DHT22;10676;50.848;3.272;2022-09-09T06:51:27;16.30;99.90
21035;DHT22;10676;50.848;3.272;2022-09-09T06:53:55;16.10;99.90
21035;DHT22;10676;50.848;3.272;2022-09-09T06:58:57;16.00;99.90
21035;DHT22;10676;50.848;3.272;2022-09-09T07:01:34;16.00;99.90
21035;DHT22;10676;50.848;3.272;2022-09-09T07:04:01;16.00;99.90
21035;DHT22;10676;50.848;3.272;2022-09-09T07:06:32;16.00;99.90
21035;DHT22;10676;50.848;3.272;2022-09-09T07:09:04;15.90;99.90
21035;DHT22;10676;50.848;3.272;2022-09-09T07:11:32;15.80;99.90
21035;DHT22;10676;50.848;3.272;2022-09-09T07:13:59;15.80;99.90
21035;DHT22;10676;50.848;3.272;2022-09-09T07:16:26;15.70;99.90
21035;DHT22;10676;50.848;3.272;2022-09-09T07:18:53;15.70;99.90
21035;DHT22;10676;50.848;3.272;2022-09-09T07:21:23;15.70;99.90
21035;DHT22;10676;50.848;3.272;2022-09-09T07:23:49;15.80;99.90
21035;DHT22;10676;50.848;3.272;2022-09-09T07:26:21;15.80;99.90
21035;DHT22;10676;50.848;3.272;2022-09-09T07:28:47;15.80;99.90
21035;DHT22;10676;50.848;3.272;2022-09-09T07:31:25;15.80;99.90
21035;DHT22;10676;50.848;3.272;2022-09-09T07:33:51;15.80;99.90
21035;DHT22;10676;50.848;3.272;2022-09-09T07:36:19;15.80;99.90
21035;DHT22;10676;50.848;3.272;2022-09-09T07:38:53;15.80;99.90
21035;DHT22;10676;50.848;3.272;2022-09-09T07:43:54;15.80;99.90
21035;DHT22;10676;50.848;3.272;2022-09-09T07:46:21;15.80;99.90
21035;DHT22;10676;50.848;3.272;2022-09-09T07:48:53;15.90;99.90
21035;DHT22;10676;50.848;3.272;2022-09-09T07:51:33;15.80;99.90
21035;DHT22;10676;50.848;3.272;2022-09-09T07:54:02;15.80;99.90
21035;DHT22;10676;50.848;3.272;2022-09-09T07:56:29;15.80;99.90
21035;DHT22;10676;50.848;3.272;2022-09-09T07:58:56;15.80;99.90
21035;DHT22;10676;50.848;3.272;2022-09-09T08:01:31;15.80;99.90
21035;DHT22;10676;50.848;3.272;2022-09-09T08:04:02;15.90;99.90
21035;DHT22;10676;50.848;3.272;2022-09-09T08:06:34;15.90;99.90
21035;DHT22;10676;50.848;3.272;2022-09-09T08:09:00;15.90;99.90
21035;DHT22;10676;50.848;3.272;2022-09-09T08:11:27;15.90;99.90
21035;DHT22;10676;50.848;3.272;2022-09-09T08:13:54;15.90;99.90
21035;DHT22;10676;50.848;3.272;2022-09-09T08:16:24;15.90;99.90
21035;DHT22;10676;50.848;3.272;2022-09-09T08:18:51;15.90;99.90
21035;DHT22;10676;50.848;3.272;2022-09-09T08:21:20;15.90;99.90
21035;DHT22;10676;50.848;3.272;2022-09-09T08:23:47;15.90;99.90
21035;DHT22;10676;50.848;3.272;2022-09-09T08:26:18;15.90;99.90
21035;DHT22;10676;50.848;3.272;2022-09-09T08:28:46;15.90;99.90
21035;DHT22;10676;50.848;3.272;2022-09-09T08:31:15;16.00;99.90
21035;DHT22;10676;50.848;3.272;2022-09-09T08:33:42;16.10;99.90
21035;DHT22;10676;50.848;3.272;2022-09-09T08:36:12;16.20;99.90
21035;DHT22;10676;50.848;3.272;2022-09-09T08:38:38;16.30;99.90
21035;DHT22;10676;50.848;3.272;2022-09-09T08:41:18;16.60;99.90
21035;DHT22;10676;50.848;3.272;2022-09-09T08:43:50;16.80;99.90
21035;DHT22;10676;50.848;3.272;2022-09-09T08:52:31;17.70;99.90
21035;DHT22;10676;50.848;3.272;2022-09-09T08:55:34;18.00;99.90
21035;DHT22;10676;50.848;3.272;2022-09-09T08:58:15;18.20;99.90
21035;DHT22;10676;50.848;3.272;2022-09-09T09:12:16;18.30;99.90
21035;DHT22;10676;50.848;3.272;2022-09-09T09:14:45;18.50;99.90
21035;DHT22;10676;50.848;3.272;2022-09-09T09:17:31;18.70;99.90
21035;DHT22;10676;50.848;3.272;2022-09-09T09:19:58;18.90;99.90
21035;DHT22;10676;50.848;3.272;2022-09-09T09:22:26;18.90;99.90
21035;DHT22;10676;50.848;3.272;2022-09-09T09:26:05;18.90;99.90
21035;DHT22;10676;50.848;3.272;2022-09-09T09:30:40;18.80;99.90
21035;DHT22;10676;50.848;3.272;2022-09-09T09:35:51;18.80;99.90
21035;DHT22;10676;50.848;3.272;2022-09-09T09:38:22;18.80;99.90
21035;DHT22;10676;50.848;3.272;2022-09-09T09:40:58;18.80;99.90
21035;DHT22;10676;50.848;3.272;2022-09-09T09:43:35;18.90;99.90
21035;DHT22;10676;50.848;3.272;2022-09-09T09:46:03;19.00;99.90
21035;DHT22;10676;50.848;3.272;2022-09-09T09:48:29;19.10;99.90
21035;DHT22;10676;50.848;3.272;2022-09-09T09:51:01;19.10;99.90
21035;DHT22;10676;50.848;3.272;2022-09-09T09:53:32;19.00;99.90
21035;DHT22;10676;50.848;3.272;2022-09-09T09:56:10;19.00;99.90
21035;DHT22;10676;50.848;3.272;2022-09-09T10:01:27;18.90;99.90
21035;DHT22;10676;50.848;3.272;2022-09-09T10:03:58;19.00;99.90
21035;DHT22;10676;50.848;3.272;2022-09-09T10:06:36;19.20;99.90
21035;DHT22;10676;50.848;3.272;2022-09-09T10:09:24;19.40;99.90
21035;DHT22;10676;50.848;3.272;2022-09-09T10:12:08;19.60;99.90
21035;DHT22;10676;50.848;3.272;2022-09-09T10:22:47;19.50;99.90
21035;DHT22;10676;50.848;3.272;2022-09-09T10:36:47;20.00;99.90
21035;DHT22;10676;50.848;3.272;2022-09-09T10:42:07;21.00;99.90
21035;DHT22;10676;50.848;3.272;2022-09-09T10:45:06;21.50;99.90
21035;DHT22;10676;50.848;3.272;2022-09-09T10:48:17;21.80;99.90
21035;DHT22;10676;50.848;3.272;2022-09-09T10:50:55;21.90;99.90
21035;DHT22;10676;50.848;3.272;2022-09-09T10:56:15;22.40;99.90
21035;DHT22;10676;50.848;3.272;2022-09-09T10:58:43;22.70;99.90
21035;DHT22;10676;50.848;3.272;2022-09-09T11:01:21;23.10;99.90
21035;DHT22;10676;50.848;3.272;2022-09-09T11:04:03;23.30;99.90
21035;DHT22;10676;50.848;3.272;2022-09-09T11:06:39;23.20;99.90
21035;DHT22;10676;50.848;3.272;2022-09-09T11:09:11;23.00;99.90
21035;DHT22;10676;50.848;3.272;2022-09-09T11:11:44;22.80;99.90
21035;DHT22;10676;50.848;3.272;2022-09-09T11:14:22;22.80;99.90
21035;DHT22;10676;50.848;3.272;2022-09-09T11:17:03;22.50;99.90
21035;DHT22;10676;50.848;3.272;2022-09-09T11:19:40;22.30;99.90
21035;DHT22;10676;50.848;3.272;2022-09-09T11:22:30;22.50;99.90
21035;DHT22;10676;50.848;3.272;2022-09-09T11:27:30;23.20;99.90
21035;DHT22;10676;50.848;3.272;2022-09-09T11:30:05;23.10;99.90
21035;DHT22;10676;50.848;3.272;2022-09-09T11:33:01;23.30;99.90
21035;DHT22;10676;50.848;3.272;2022-09-09T11:36:06;23.60;99.90
21035;DHT22;10676;50.848;3.272;2022-09-09T11:38:47;23.70;99.90
21035;DHT22;10676;50.848;3.272;2022-09-09T11:41:14;23.70;99.90
21035;DHT22;10676;50.848;3.272;2022-09-09T11:43:48;23.60;99.90
21035;DHT22;10676;50.848;3.272;2022-09-09T11:46:22;23.60;99.90
21035;DHT22;10676;50.848;3.272;2022-09-09T11:49:04;23.40;99.90
21035;DHT22;10676;50.848;3.272;2022-09-09T11:51:32;23.10;99.90
21035;DHT22;10676;50.848;3.272;2022-09-09T11:53:59;22.90;99.90
21035;DHT22;10676;50.848;3.272;2022-09-09T11:56:42;22.80;99.90
21035;DHT22;10676;50.848;3.272;2022-09-09T12:02:08;22.80;99.90
21035;DHT22;10676;50.848;3.272;2022-09-09T12:04:49;22.70;99.90
21035;DHT22;10676;50.848;3.272;2022-09-09T12:07:38;22.60;99.90
21035;DHT22;10676;50.848;3.272;2022-09-09T12:12:38;22.20;99.90
21035;DHT22;10676;50.848;3.272;2022-09-09T12:15:25;22.00;99.90
21035;DHT22;10676;50.848;3.272;2022-09-09T12:17:56;21.90;99.90
21035;DHT22;10676;50.848;3.272;2022-09-09T12:20:33;21.90;99.90
21035;DHT22;10676;50.848;3.272;2022-09-09T12:28:27;22.30;99.90
21035;DHT22;10676;50.848;3.272;2022-09-09T12:31:26;22.50;99.90
21035;DHT22;10676;50.848;3.272;2022-09-09T12:33:53;22.70;99.90
21035;DHT22;10676;50.848;3.272;2022-09-09T12:36:27;22.80;99.90
21035;DHT22;10676;50.848;3.272;2022-09-09T12:38:56;22.90;99.90
21035;DHT22;10676;50.848;3.272;2022-09-09T12:41:27;23.10;99.90
21035;DHT22;10676;50.848;3.272;2022-09-09T12:44:04;23.20;99.90
21035;DHT22;10676;50.848;3.272;2022-09-09T12:46:52;23.40;99.90
21035;DHT22;10676;50.848;3.272;2022-09-09T12:49:38;23.60;99.90
21035;DHT22;10676;50.848;3.272;2022-09-09T12:52:14;23.80;99.90
21035;DHT22;10676;50.848;3.272;2022-09-09T12:54:45;23.90;99.90
21035;DHT22;10676;50.848;3.272;2022-09-09T12:57:12;23.90;99.90
21035;DHT22;10676;50.848;3.272;2022-09-09T12:59:41;23.80;99.90
21035;DHT22;10676;50.848;3.272;2022-09-09T13:02:25;24.00;99.90
21035;DHT22;10676;50.848;3.272;2022-09-09T13:04:52;24.20;99.90
21035;DHT22;10676;50.848;3.272;2022-09-09T13:07:20;24.40;99.90
21035;DHT22;10676;50.848;3.272;2022-09-09T13:09:47;24.60;99.90
21035;DHT22;10676;50.848;3.272;2022-09-09T13:12:19;24.60;99.90
21035;DHT22;10676;50.848;3.272;2022-09-09T13:14:49;24.70;99.90
21035;DHT22;10676;50.848;3.272;2022-09-09T13:17:24;24.70;99.90
21035;DHT22;10676;50.848;3.272;2022-09-09T13:19:51;24.80;99.90
21035;DHT22;10676;50.848;3.272;2022-09-09T13:22:36;24.70;99.90
21035;DHT22;10676;50.848;3.272;2022-09-09T13:25:26;24.60;99.90
21035;DHT22;10676;50.848;3.272;2022-09-09T13:27:58;24.60;99.90
21035;DHT22;10676;50.848;3.272;2022-09-09T13:30:31;24.60;99.90
21035;DHT22;10676;50.848;3.272;2022-09-09T13:35:31;24.80;99.90
21035;DHT22;10676;50.848;3.272;2022-09-09T13:37:58;24.70;99.90
21035;DHT22;10676;50.848;3.272;2022-09-09T13:40:24;24.60;99.90
21035;DHT22;10676;50.848;3.272;2022-09-09T13:42:56;24.30;99.90
21035;DHT22;10676;50.848;3.272;2022-09-09T13:45:24;24.00;99.90
21035;DHT22;10676;50.848;3.272;2022-09-09T13:47:53;23.80;99.90
21035;DHT22;10676;50.848;3.272;2022-09-09T13:52:50;23.50;99.90
21035;DHT22;10676;50.848;3.272;2022-09-09T13:55:19;23.60;99.90
21035;DHT22;10676;50.848;3.272;2022-09-09T13:58:03;23.70;99.90
21035;DHT22;10676;50.848;3.272;2022-09-09T14:00:33;24.10;99.90
21035;DHT22;10676;50.848;3.272;2022-09-09T14:02:59;24.10;99.90
21035;DHT22;10676;50.848;3.272;2022-09-09T14:05:29;24.30;99.90
21035;DHT22;10676;50.848;3.272;2022-09-09T14:07:57;24.60;99.90
21035;DHT22;10676;50.848;3.272;2022-09-09T14:10:23;24.80;99.90
21035;DHT22;10676;50.848;3.272;2022-09-09T14:12:48;25.10;99.90
21035;DHT22;10676;50.848;3.272;2022-09-09T14:15:14;25.40;99.90
21035;DHT22;10676;50.848;3.272;2022-09-09T14:17:40;25.70;99.90
21035;DHT22;10676;50.848;3.272;2022-09-09T14:20:07;25.70;99.90
21035;DHT22;10676;50.848;3.272;2022-09-09T14:22:33;25.40;99.90
21035;DHT22;10676;50.848;3.272;2022-09-09T14:24:59;25.00;99.90
21035;DHT22;10676;50.848;3.272;2022-09-09T14:27:24;24.50;99.90
21035;DHT22;10676;50.848;3.272;2022-09-09T14:29:52;24.10;99.90
21035;DHT22;10676;50.848;3.272;2022-09-09T14:32:18;23.80;99.90
21035;DHT22;10676;50.848;3.272;2022-09-09T14:34:44;23.50;99.90
21035;DHT22;10676;50.848;3.272;2022-09-09T14:37:10;23.30;99.90
21035;DHT22;10676;50.848;3.272;2022-09-09T14:39:36;23.10;99.90
21035;DHT22;10676;50.848;3.272;2022-09-09T14:42:01;23.10;99.90
21035;DHT22;10676;50.848;3.272;2022-09-09T14:44:27;22.90;99.90
21035;DHT22;10676;50.848;3.272;2022-09-09T14:46:53;22.80;99.90
21035;DHT22;10676;50.848;3.272;2022-09-09T14:49:19;22.80;99.90
21035;DHT22;10676;50.848;3.272;2022-09-09T14:51:45;22.70;99.90
21035;DHT22;10676;50.848;3.272;2022-09-09T14:54:11;22.70;99.90
21035;DHT22;10676;50.848;3.272;2022-09-09T14:56:37;22.80;99.90
21035;DHT22;10676;50.848;3.272;2022-09-09T14:59:04;22.70;99.90
21035;DHT22;10676;50.848;3.272;2022-09-09T15:01:30;22.60;99.90
21035;DHT22;10676;50.848;3.272;2022-09-09T15:03:59;22.50;99.90
21035;DHT22;10676;50.848;3.272;2022-09-09T15:06:29;22.40;99.90
21035;DHT22;10676;50.848;3.272;2022-09-09T15:08:56;22.00;99.90
21035;DHT22;10676;50.848;3.272;2022-09-09T15:11:25;21.30;99.90
21035;DHT22;10676;50.848;3.272;2022-09-09T15:13:52;20.40;99.90
21035;DHT22;10676;50.848;3.272;2022-09-09T15:16:19;19.50;99.90
21035;DHT22;10676;50.848;3.272;2022-09-09T15:18:46;18.80;99.90
21035;DHT22;10676;50.848;3.272;2022-09-09T15:21:14;18.40;99.90
21035;DHT22;10676;50.848;3.272;2022-09-09T15:23:41;18.30;99.90
21035;DHT22;10676;50.848;3.272;2022-09-09T15:26:07;18.40;99.90
21035;DHT22;10676;50.848;3.272;2022-09-09T15:28:36;18.60;99.90
21035;DHT22;10676;50.848;3.272;2022-09-09T15:31:06;18.90;99.90
21035;DHT22;10676;50.848;3.272;2022-09-09T15:33:32;19.40;99.90
21035;DHT22;10676;50.848;3.272;2022-09-09T15:35:59;20.00;99.90
21035;DHT22;10676;50.848;3.272;2022-09-09T15:38:24;20.70;99.90
21035;DHT22;10676;50.848;3.272;2022-09-09T15:40:54;21.40;99.90
21035;DHT22;10676;50.848;3.272;2022-09-09T15:43:21;22.10;99.90
21035;DHT22;10676;50.848;3.272;2022-09-09T15:45:53;22.70;99.90
21035;DHT22;10676;50.848;3.272;2022-09-09T15:48:30;23.00;99.90
21035;DHT22;10676;50.848;3.272;2022-09-09T15:51:04;23.20;99.90
21035;DHT22;10676;50.848;3.272;2022-09-09T15:53:30;23.20;99.90
21035;DHT22;10676;50.848;3.272;2022-09-09T15:55:58;23.10;99.90
21035;DHT22;10676;50.848;3.272;2022-09-09T15:58:23;23.00;99.90
21035;DHT22;10676;50.848;3.272;2022-09-09T16:00:49;22.80;99.90
21035;DHT22;10676;50.848;3.272;2022-09-09T16:03:14;22.50;99.90
21035;DHT22;10676;50.848;3.272;2022-09-09T16:05:40;22.10;99.90
21035;DHT22;10676;50.848;3.272;2022-09-09T16:08:06;21.80;99.90
21035;DHT22;10676;50.848;3.272;2022-09-09T16:10:32;21.50;99.90
21035;DHT22;10676;50.848;3.272;2022-09-09T16:12:58;21.30;99.90
21035;DHT22;10676;50.848;3.272;2022-09-09T16:15:24;21.00;99.90
21035;DHT22;10676;50.848;3.272;2022-09-09T16:17:53;20.70;99.90
21035;DHT22;10676;50.848;3.272;2022-09-09T16:20:19;20.50;99.90
21035;DHT22;10676;50.848;3.272;2022-09-09T16:22:45;20.30;99.90
21035;DHT22;10676;50.848;3.272;2022-09-09T16:25:11;20.20;99.90
21035;DHT22;10676;50.848;3.272;2022-09-09T16:27:37;20.20;99.90
21035;DHT22;10676;50.848;3.272;2022-09-09T16:30:03;20.30;99.90
21035;DHT22;10676;50.848;3.272;2022-09-09T16:32:29;20.40;99.90
21035;DHT22;10676;50.848;3.272;2022-09-09T16:34:55;20.50;99.90
21035;DHT22;10676;50.848;3.272;2022-09-09T16:37:21;20.50;99.90
21035;DHT22;10676;50.848;3.272;2022-09-09T16:39:47;20.50;99.90
21035;DHT22;10676;50.848;3.272;2022-09-09T16:42:12;20.40;99.90
21035;DHT22;10676;50.848;3.272;2022-09-09T16:44:38;20.30;99.90
21035;DHT22;10676;50.848;3.272;2022-09-09T16:47:04;20.30;99.90
21035;DHT22;10676;50.848;3.272;2022-09-09T16:49:29;20.30;99.90
21035;DHT22;10676;50.848;3.272;2022-09-09T16:51:57;20.40;99.90
21035;DHT22;10676;50.848;3.272;2022-09-09T16:54:24;20.20;99.90
21035;DHT22;10676;50.848;3.272;2022-09-09T16:56:52;20.10;99.90
21035;DHT22;10676;50.848;3.272;2022-09-09T16:59:19;19.90;99.90
21035;DHT22;10676;50.848;3.272;2022-09-09T17:01:47;19.60;99.90
21035;DHT22;10676;50.848;3.272;2022-09-09T17:04:18;19.40;99.90
21035;DHT22;10676;50.848;3.272;2022-09-09T17:06:50;19.30;99.90
21035;DHT22;10676;50.848;3.272;2022-09-09T17:09:17;19.10;99.90
21035;DHT22;10676;50.848;3.272;2022-09-09T17:11:44;19.00;99.90
21035;DHT22;10676;50.848;3.272;2022-09-09T17:14:14;18.90;99.90
21035;DHT22;10676;50.848;3.272;2022-09-09T17:16:41;18.90;99.90
21035;DHT22;10676;50.848;3.272;2022-09-09T17:19:07;18.90;99.90
21035;DHT22;10676;50.848;3.272;2022-09-09T17:21:34;18.90;99.90
21035;DHT22;10676;50.848;3.272;2022-09-09T17:24:00;18.90;99.90
21035;DHT22;10676;50.848;3.272;2022-09-09T17:26:29;18.70;99.90
21035;DHT22;10676;50.848;3.272;2022-09-09T17:28:56;18.60;99.90
21035;DHT22;10676;50.848;3.272;2022-09-09T17:31:23;18.60;99.90
21035;DHT22;10676;50.848;3.272;2022-09-09T17:33:52;18.50;99.90
21035;DHT22;10676;50.848;3.272;2022-09-09T17:36:19;18.50;99.90
21035;DHT22;10676;50.848;3.272;2022-09-09T17:38:45;18.40;99.90
21035;DHT22;10676;50.848;3.272;2022-09-09T17:43:39;18.30;99.90
21035;DHT22;10676;50.848;3.272;2022-09-09T17:46:07;18.30;99.90
21035;DHT22;10676;50.848;3.272;2022-09-09T17:48:32;18.20;99.90
21035;DHT22;10676;50.848;3.272;2022-09-09T17:50:59;18.20;99.90
21035;DHT22;10676;50.848;3.272;2022-09-09T17:53:25;18.10;99.90
21035;DHT22;10676;50.848;3.272;2022-09-09T17:55:51;18.10;99.90